Terminal Aerodrome Forecast
Issued by NWS

Home | Current Version | Previous Version | Text Only | Print | Product List | Glossary On
Versions: 1 2 3 4 5 6 7 8 9 10 11 12
998
FTPA31 PHFO 080540
TAFSTU
TAF
NSTU 080540Z 0806/0906 10008KT P6SM SCT020
     FM080900 VRB05KT P6SM SCT020
     FM082000 09008KT P6SM SCT020 SCT040 SCT100
      AMD NOT SKED=

USA.gov is the U.S. government's official web portal to all federal, state and local government web resources and services.